createdAt,value
2022-12-14T00:02:04.471Z,-4.80
2022-12-14T00:04:32.824Z,-4.70
2022-12-14T00:07:02.353Z,-4.70
2022-12-14T00:09:30.497Z,-4.80
2022-12-14T00:11:58.693Z,-4.80
2022-12-14T00:14:26.951Z,-4.90
2022-12-14T00:16:55.082Z,-4.90
2022-12-14T00:19:23.261Z,-5.00
2022-12-14T00:21:51.392Z,-5.10
2022-12-14T00:24:21.157Z,-5.10
2022-12-14T00:26:50.434Z,-5.10
2022-12-14T00:29:18.659Z,-5.10
2022-12-14T00:31:48.765Z,-5.10
2022-12-14T00:34:17.363Z,-5.10
2022-12-14T00:36:45.478Z,-5.20
2022-12-14T00:39:13.800Z,-5.20
2022-12-14T00:41:43.349Z,-5.20
2022-12-14T00:44:11.560Z,-5.30
2022-12-14T00:46:39.758Z,-5.30
2022-12-14T00:49:07.975Z,-5.30
2022-12-14T00:51:36.119Z,-5.30
2022-12-14T00:54:04.366Z,-5.20
2022-12-14T00:56:33.214Z,-5.20
2022-12-14T00:59:02.743Z,-5.20
2022-12-14T01:01:31.566Z,-5.20
2022-12-14T01:04:13.911Z,-5.00
2022-12-14T01:06:42.143Z,-5.00
2022-12-14T01:09:10.586Z,-5.10
2022-12-14T01:11:38.960Z,-5.20
2022-12-14T01:14:09.779Z,-5.20
2022-12-14T01:16:38.439Z,-5.00
2022-12-14T01:19:07.480Z,-5.20
2022-12-14T01:21:35.899Z,-5.30
2022-12-14T01:24:06.892Z,-5.30
2022-12-14T01:26:39.957Z,-5.30
2022-12-14T01:29:09.791Z,-5.20
2022-12-14T01:31:39.461Z,-5.30
2022-12-14T01:34:08.259Z,-5.20
2022-12-14T01:36:38.881Z,-5.20
2022-12-14T01:39:13.598Z,-5.30
2022-12-14T01:41:44.648Z,-5.40
2022-12-14T01:44:53.601Z,-5.30
2022-12-14T01:47:30.626Z,-5.50
2022-12-14T01:50:06.839Z,-5.50
2022-12-14T01:52:41.880Z,-5.60
2022-12-14T01:55:17.308Z,-5.60
2022-12-14T01:57:58.518Z,-5.50
2022-12-14T02:00:28.321Z,-5.60
2022-12-14T02:03:02.153Z,-5.60
2022-12-14T02:05:34.022Z,-5.70
2022-12-14T02:08:03.905Z,-5.50
2022-12-14T02:10:33.549Z,-5.70
2022-12-14T02:13:10.880Z,-5.70
2022-12-14T02:15:40.890Z,-5.70
2022-12-14T02:18:19.384Z,-5.70
2022-12-14T02:21:10.810Z,-5.60
2022-12-14T02:24:37.603Z,-5.60
2022-12-14T02:27:50.979Z,-5.60
2022-12-14T02:30:23.209Z,-5.80
2022-12-14T02:33:19.304Z,-5.90
2022-12-14T02:35:55.363Z,-5.90
2022-12-14T02:38:46.654Z,-5.90
2022-12-14T02:41:28.749Z,-6.00
2022-12-14T02:44:08.663Z,-6.00
2022-12-14T02:46:50.556Z,-6.10
2022-12-14T02:49:41.649Z,-6.10
2022-12-14T02:52:34.743Z,-6.20
2022-12-14T02:55:09.878Z,-6.10
2022-12-14T02:57:47.619Z,-6.10
2022-12-14T03:00:16.988Z,-6.10
2022-12-14T03:02:48.975Z,-5.80
2022-12-14T03:05:17.607Z,-6.10
2022-12-14T03:07:52.027Z,-6.20
2022-12-14T03:10:33.602Z,-6.10
2022-12-14T03:13:13.588Z,-6.20
2022-12-14T03:15:46.298Z,-6.20
2022-12-14T03:18:22.577Z,-6.30
2022-12-14T03:20:56.491Z,-6.30
2022-12-14T03:23:32.038Z,-6.40
2022-12-14T03:26:09.119Z,-6.40
2022-12-14T03:28:45.764Z,-6.50
2022-12-14T03:31:21.422Z,-6.30
2022-12-14T03:33:55.305Z,-6.40
2022-12-14T03:36:31.332Z,-6.40
2022-12-14T03:39:04.225Z,-6.50
2022-12-14T03:41:49.028Z,-6.60
2022-12-14T03:44:33.841Z,-6.60
2022-12-14T03:47:18.516Z,-6.60
2022-12-14T03:50:00.143Z,-6.60
2022-12-14T03:52:37.464Z,-6.40
2022-12-14T03:55:23.582Z,-6.60
2022-12-14T03:58:17.687Z,-6.60
2022-12-14T04:00:58.661Z,-6.40
2022-12-14T04:03:43.810Z,-6.60
2022-12-14T04:06:27.589Z,-6.50
2022-12-14T04:09:10.004Z,-6.60
2022-12-14T04:12:04.177Z,-6.70
2022-12-14T04:14:56.805Z,-6.80
2022-12-14T04:17:52.531Z,-6.80
2022-12-14T04:20:28.458Z,-6.90
2022-12-14T04:23:07.925Z,-6.90
2022-12-14T04:26:00.892Z,-6.90
2022-12-14T04:28:56.387Z,-6.90
2022-12-14T04:31:31.765Z,-7.00
2022-12-14T04:34:05.782Z,-7.00
2022-12-14T04:36:42.032Z,-7.00
2022-12-14T04:39:21.721Z,-6.90
2022-12-14T04:41:54.780Z,-6.90
2022-12-14T04:44:31.665Z,-6.90
2022-12-14T04:47:02.165Z,-7.00
2022-12-14T04:49:40.007Z,-7.00
2022-12-14T04:52:16.883Z,-7.00
2022-12-14T04:54:54.288Z,-7.00
2022-12-14T04:57:32.956Z,-6.90
2022-12-14T05:00:03.654Z,-6.90
2022-12-14T05:02:50.706Z,-7.00
2022-12-14T05:05:27.201Z,-7.00
2022-12-14T05:08:05.791Z,-7.00
2022-12-14T05:10:43.452Z,-7.10
2022-12-14T05:13:18.707Z,-7.10
2022-12-14T05:15:52.528Z,-7.10
2022-12-14T05:18:22.022Z,-7.00
2022-12-14T05:20:51.298Z,-7.10
2022-12-14T05:23:19.581Z,-7.10
2022-12-14T05:25:49.330Z,-7.10
2022-12-14T05:28:17.784Z,-7.20
2022-12-14T05:30:49.065Z,-7.10
2022-12-14T05:33:21.040Z,-7.10
2022-12-14T05:35:49.242Z,-7.20
2022-12-14T05:38:17.371Z,-7.20
2022-12-14T05:40:45.549Z,-7.10
2022-12-14T05:43:15.082Z,-7.10
2022-12-14T05:45:43.283Z,-7.30
2022-12-14T05:48:11.539Z,-7.20
2022-12-14T05:50:39.708Z,-7.20
2022-12-14T05:53:08.678Z,-7.20
2022-12-14T05:55:36.798Z,-7.10
2022-12-14T05:58:04.970Z,-7.10
2022-12-14T06:00:34.476Z,-7.20
2022-12-14T06:03:02.715Z,-7.20
2022-12-14T06:05:31.077Z,-7.20
2022-12-14T06:07:59.498Z,-7.20
2022-12-14T06:10:27.694Z,-7.30
2022-12-14T06:12:57.776Z,-7.20
2022-12-14T06:15:33.649Z,-7.10
2022-12-14T06:18:03.560Z,-7.20
2022-12-14T06:20:31.701Z,-7.20
2022-12-14T06:22:59.962Z,-7.10
2022-12-14T06:25:28.134Z,-7.20
2022-12-14T06:27:56.402Z,-7.20
2022-12-14T06:30:24.551Z,-7.20
2022-12-14T06:32:52.661Z,-7.20
2022-12-14T06:35:46.514Z,-7.00
2022-12-14T06:38:15.919Z,-7.30
2022-12-14T06:40:44.483Z,-7.00
2022-12-14T06:43:12.937Z,-7.10
2022-12-14T06:45:41.190Z,-7.10
2022-12-14T06:48:09.305Z,-7.10
2022-12-14T06:50:38.858Z,-7.10
2022-12-14T06:53:07.104Z,-7.10
2022-12-14T06:55:35.337Z,-7.20
2022-12-14T06:58:03.529Z,-7.30
2022-12-14T07:00:32.045Z,-7.30
2022-12-14T07:03:00.408Z,-7.40
2022-12-14T07:05:28.626Z,-7.40
2022-12-14T07:07:58.513Z,-7.30
2022-12-14T07:10:26.689Z,-7.20
2022-12-14T07:12:54.880Z,-7.40
2022-12-14T07:15:23.055Z,-7.20
2022-12-14T07:17:51.212Z,-7.20
2022-12-14T07:20:19.841Z,-7.20
2022-12-14T07:22:49.467Z,-7.20
2022-12-14T07:25:19.098Z,-7.30
2022-12-14T07:27:47.381Z,-7.30
2022-12-14T07:30:15.733Z,-7.30
2022-12-14T07:32:43.910Z,-7.20
2022-12-14T07:35:16.582Z,-7.20
2022-12-14T07:37:49.162Z,-7.10
2022-12-14T07:40:19.015Z,-7.10
2022-12-14T07:42:50.285Z,-7.00
2022-12-14T07:45:18.657Z,-7.00
2022-12-14T07:47:47.043Z,-7.00
2022-12-14T07:50:15.399Z,-6.90
2022-12-14T07:52:43.523Z,-6.80
2022-12-14T07:55:11.796Z,-6.70
2022-12-14T07:57:41.340Z,-6.70
2022-12-14T08:00:11.715Z,-6.80
2022-12-14T08:02:39.971Z,-6.80
2022-12-14T08:05:12.492Z,-6.70
2022-12-14T08:07:40.994Z,-6.70
2022-12-14T08:10:09.766Z,-6.70
2022-12-14T08:12:37.876Z,-6.60
2022-12-14T08:15:10.042Z,-6.70
2022-12-14T08:17:38.226Z,-6.60
2022-12-14T08:20:08.283Z,-6.60
2022-12-14T08:22:36.440Z,-6.70
2022-12-14T08:25:04.903Z,-6.60
2022-12-14T08:27:33.096Z,-6.50
2022-12-14T08:30:01.293Z,-6.50
2022-12-14T08:32:34.316Z,-6.30
2022-12-14T08:35:02.824Z,-6.10
2022-12-14T08:37:30.936Z,-6.40
2022-12-14T08:39:59.478Z,-6.30
2022-12-14T08:42:27.805Z,-6.40
2022-12-14T08:44:56.012Z,-6.30
2022-12-14T08:47:24.174Z,-6.40
2022-12-14T08:49:54.234Z,-6.30
2022-12-14T08:52:22.478Z,-6.30
2022-12-14T08:54:50.659Z,-6.20
2022-12-14T08:57:18.797Z,-6.20
2022-12-14T09:00:02.984Z,-6.10
2022-12-14T09:02:31.897Z,-6.00
2022-12-14T09:05:01.564Z,-6.10
2022-12-14T09:07:30.506Z,-6.10
2022-12-14T09:09:58.705Z,-6.10
2022-12-14T09:12:27.052Z,-6.00
2022-12-14T09:14:55.232Z,-5.90
2022-12-14T09:17:23.420Z,-5.80
2022-12-14T09:19:51.575Z,-5.70
2022-12-14T09:22:21.726Z,-5.60
2022-12-14T09:24:50.581Z,-5.40
2022-12-14T09:27:19.141Z,-5.40
2022-12-14T09:29:47.652Z,-5.40
2022-12-14T09:32:15.821Z,-5.40
2022-12-14T09:34:44.308Z,-5.20
2022-12-14T09:37:12.842Z,-5.50
2022-12-14T09:39:42.554Z,-5.40
2022-12-14T09:42:38.494Z,-5.40
2022-12-14T09:45:18.635Z,-5.30
2022-12-14T09:47:58.517Z,-5.20
2022-12-14T09:50:28.190Z,-5.20
2022-12-14T09:53:01.059Z,-5.20
2022-12-14T09:55:35.533Z,-5.00
2022-12-14T09:58:16.393Z,-5.10
2022-12-14T10:00:53.907Z,-5.10
2022-12-14T10:03:50.701Z,-5.30
2022-12-14T10:06:37.178Z,-5.10
2022-12-14T10:09:19.377Z,-5.10
2022-12-14T10:12:01.630Z,-5.10
2022-12-14T10:14:51.086Z,-5.00
2022-12-14T10:17:34.333Z,-5.00
2022-12-14T10:20:16.977Z,-4.90
2022-12-14T10:22:52.386Z,-4.80
2022-12-14T10:25:25.372Z,-4.80
2022-12-14T10:28:12.326Z,-4.80
2022-12-14T10:30:44.088Z,-4.80
2022-12-14T10:33:21.681Z,-4.90
2022-12-14T10:35:53.685Z,-4.80
2022-12-14T10:38:30.062Z,-4.90
2022-12-14T10:41:08.283Z,-4.90
2022-12-14T10:43:53.352Z,-4.90
2022-12-14T10:46:35.234Z,-4.80
2022-12-14T10:49:17.303Z,-4.80
2022-12-14T10:51:59.569Z,-4.80
2022-12-14T10:54:34.864Z,-4.70
2022-12-14T10:57:03.124Z,-4.80
2022-12-14T10:59:50.794Z,-4.80
2022-12-14T11:02:30.713Z,-4.80
2022-12-14T11:05:03.628Z,-4.80
2022-12-14T11:07:42.904Z,-4.70
2022-12-14T11:10:20.013Z,-4.70
2022-12-14T11:13:20.003Z,-4.70
2022-12-14T11:15:52.347Z,-4.70
2022-12-14T11:18:30.766Z,-4.60
2022-12-14T11:21:02.933Z,-4.60
2022-12-14T11:23:37.371Z,-4.50
2022-12-14T11:26:12.468Z,-4.40
2022-12-14T11:28:50.046Z,-4.10
2022-12-14T11:31:29.786Z,-4.00
2022-12-14T11:34:00.829Z,-4.20
2022-12-14T11:36:38.031Z,-4.10
2022-12-14T11:39:19.510Z,-4.00
2022-12-14T11:41:51.019Z,-3.80
2022-12-14T11:44:26.232Z,-3.80
2022-12-14T11:47:03.535Z,-3.70
2022-12-14T11:49:43.726Z,-3.70
2022-12-14T11:52:14.769Z,-3.70
2022-12-14T11:54:49.784Z,-3.60
2022-12-14T11:57:28.541Z,-3.60
2022-12-14T12:00:01.332Z,-3.60
2022-12-14T12:02:35.591Z,-3.70
2022-12-14T12:05:12.354Z,-3.60
2022-12-14T12:07:45.958Z,-3.50
2022-12-14T12:10:21.973Z,-3.50
2022-12-14T12:12:54.460Z,-3.60
2022-12-14T12:15:27.802Z,-3.60
2022-12-14T12:18:06.155Z,-3.60
2022-12-14T12:20:41.110Z,-3.50
2022-12-14T12:23:20.396Z,-3.40
2022-12-14T12:25:53.953Z,-3.30
2022-12-14T12:28:29.939Z,-3.10
2022-12-14T12:31:10.873Z,-3.10
2022-12-14T12:33:48.714Z,-3.00
2022-12-14T12:36:24.018Z,-3.00
2022-12-14T12:39:06.060Z,-3.00
2022-12-14T12:41:52.339Z,-3.20
2022-12-14T12:44:40.856Z,-3.00
2022-12-14T12:47:33.380Z,-3.00
2022-12-14T12:50:16.287Z,-3.00
2022-12-14T12:53:03.248Z,-2.80
2022-12-14T12:55:37.615Z,-2.70
2022-12-14T12:58:10.325Z,-2.90
2022-12-14T13:00:41.935Z,-2.80
2022-12-14T13:03:21.619Z,-2.90
2022-12-14T13:05:56.444Z,-3.00
2022-12-14T13:08:32.852Z,-3.00
2022-12-14T13:11:26.001Z,-3.00
2022-12-14T13:13:59.586Z,-3.10
2022-12-14T13:16:34.529Z,-3.10
2022-12-14T13:19:48.059Z,-3.10
2022-12-14T13:22:07.187Z,-3.20
2022-12-14T13:24:37.782Z,-3.20
2022-12-14T13:27:47.549Z,-3.20
2022-12-14T13:30:35.829Z,-3.20
2022-12-14T13:33:42.530Z,-3.10
2022-12-14T13:36:54.749Z,-3.10
2022-12-14T13:39:58.664Z,-3.20
2022-12-14T13:42:43.344Z,-3.20
2022-12-14T13:45:19.314Z,-3.20
2022-12-14T13:47:53.963Z,-3.20
2022-12-14T13:50:41.042Z,-3.20
2022-12-14T13:53:25.642Z,-3.30
2022-12-14T13:55:58.652Z,-3.30
2022-12-14T13:58:38.603Z,-3.20
2022-12-14T14:01:08.804Z,-3.30
2022-12-14T14:03:53.435Z,-3.30
2022-12-14T14:06:36.463Z,-3.40
2022-12-14T14:10:00.339Z,-3.40
2022-12-14T14:12:40.074Z,-3.30
2022-12-14T14:16:26.444Z,-3.40
2022-12-14T14:18:49.490Z,-3.40
2022-12-14T14:22:06.110Z,-3.40
2022-12-14T14:24:59.285Z,-3.50
2022-12-14T14:27:35.955Z,-3.50
2022-12-14T14:30:21.222Z,-3.40
2022-12-14T14:32:49.564Z,-3.30
2022-12-14T14:35:31.370Z,-3.30
2022-12-14T14:38:03.093Z,-3.40
2022-12-14T14:41:14.229Z,-3.50
2022-12-14T14:43:32.088Z,-3.50
2022-12-14T14:46:06.424Z,-3.50
2022-12-14T14:48:41.239Z,-3.60
2022-12-14T14:51:21.920Z,-3.70
2022-12-14T14:55:10.662Z,-3.80
2022-12-14T14:57:36.934Z,-3.70
2022-12-14T15:00:11.614Z,-3.80
2022-12-14T15:02:43.697Z,-3.90
2022-12-14T15:08:21.840Z,-3.90
2022-12-14T15:10:52.364Z,-4.10
2022-12-14T15:13:25.547Z,-4.00
2022-12-14T15:15:56.397Z,-4.00
2022-12-14T15:18:28.582Z,-4.00
2022-12-14T15:21:03.597Z,-4.00
2022-12-14T15:23:37.599Z,-4.20
2022-12-14T15:26:17.391Z,-4.20
2022-12-14T15:28:51.289Z,-4.30
2022-12-14T15:31:29.969Z,-4.30
2022-12-14T15:33:59.841Z,-4.30
2022-12-14T15:36:33.192Z,-4.30
2022-12-14T15:39:01.920Z,-4.30
2022-12-14T15:41:34.507Z,-4.30
2022-12-14T15:44:02.704Z,-4.40
2022-12-14T15:46:34.316Z,-4.40
2022-12-14T15:49:05.000Z,-4.40
2022-12-14T15:51:37.299Z,-4.40
2022-12-14T15:54:14.689Z,-4.40
2022-12-14T15:56:48.969Z,-4.40
2022-12-14T15:59:21.516Z,-4.30
2022-12-14T16:02:01.371Z,-4.40
2022-12-14T16:04:33.589Z,-4.40
2022-12-14T16:07:09.432Z,-4.30
2022-12-14T16:09:44.688Z,-4.40
2022-12-14T16:12:28.384Z,-4.30
2022-12-14T16:15:00.225Z,-4.40
2022-12-14T16:17:35.022Z,-4.40
2022-12-14T16:20:19.319Z,-4.40
2022-12-14T16:23:02.210Z,-4.40
2022-12-14T16:25:32.747Z,-4.60
2022-12-14T16:28:26.071Z,-4.70
2022-12-14T16:30:59.344Z,-4.80
2022-12-14T16:33:29.591Z,-5.00
2022-12-14T16:36:06.689Z,-5.00
2022-12-14T16:38:42.491Z,-5.10
2022-12-14T16:41:11.264Z,-5.10
2022-12-14T16:43:42.988Z,-5.20
2022-12-14T16:46:18.931Z,-5.30
2022-12-14T16:49:20.401Z,-5.30
2022-12-14T16:52:09.125Z,-5.30
2022-12-14T16:54:39.206Z,-5.30
2022-12-14T16:57:19.713Z,-5.30
2022-12-14T16:59:58.927Z,-5.30
2022-12-14T17:02:32.960Z,-5.30
2022-12-14T17:05:04.479Z,-5.40
2022-12-14T17:07:36.266Z,-5.40
2022-12-14T17:10:05.456Z,-5.40
2022-12-14T17:12:33.746Z,-5.40
2022-12-14T17:15:03.280Z,-5.30
2022-12-14T17:17:37.589Z,-5.20
2022-12-14T17:20:14.397Z,-5.20
2022-12-14T17:22:43.603Z,-5.10
2022-12-14T17:25:18.872Z,-5.00
2022-12-14T17:27:51.598Z,-5.10
2022-12-14T17:30:24.712Z,-5.20
2022-12-14T17:32:55.100Z,-5.40
2022-12-14T17:35:26.204Z,-5.50
2022-12-14T17:37:55.208Z,-5.50
2022-12-14T17:40:23.628Z,-5.50
2022-12-14T17:42:55.865Z,-5.60
2022-12-14T17:45:29.779Z,-5.80
2022-12-14T17:47:58.763Z,-5.90
2022-12-14T17:50:27.050Z,-6.00
2022-12-14T17:52:55.351Z,-6.10
2022-12-14T17:55:27.058Z,-6.10
2022-12-14T17:57:56.302Z,-6.10
2022-12-14T18:00:54.658Z,-6.00
2022-12-14T18:03:23.069Z,-6.00
2022-12-14T18:05:52.300Z,-6.00
2022-12-14T18:08:22.080Z,-6.00
2022-12-14T18:10:53.942Z,-6.00
2022-12-14T18:13:22.231Z,-6.00
2022-12-14T18:15:54.282Z,-6.00
2022-12-14T18:18:27.634Z,-6.00
2022-12-14T18:21:00.115Z,-6.10
2022-12-14T18:23:30.596Z,-6.30
2022-12-14T18:26:02.569Z,-6.30
2022-12-14T18:28:30.766Z,-6.40
2022-12-14T18:31:06.047Z,-6.60
2022-12-14T18:33:35.685Z,-6.70
2022-12-14T18:36:04.163Z,-6.80
2022-12-14T18:38:32.513Z,-6.90
2022-12-14T18:41:03.160Z,-6.50
2022-12-14T18:43:32.659Z,-7.10
2022-12-14T18:46:02.579Z,-7.00
2022-12-14T18:48:30.872Z,-7.30
2022-12-14T18:50:59.356Z,-7.30
2022-12-14T18:53:28.841Z,-7.40
2022-12-14T18:55:58.281Z,-7.40
2022-12-14T18:58:29.486Z,-7.40
2022-12-14T19:01:01.296Z,-7.50
2022-12-14T19:03:33.630Z,-7.50
2022-12-14T19:06:42.190Z,-7.60
2022-12-14T19:08:58.010Z,-7.60
2022-12-14T19:11:33.286Z,-7.50
2022-12-14T19:14:01.994Z,-7.60
2022-12-14T19:16:30.449Z,-7.70
2022-12-14T19:19:00.659Z,-7.70
2022-12-14T19:21:31.295Z,-7.70
2022-12-14T19:24:00.351Z,-7.60
2022-12-14T19:26:29.330Z,-7.50
2022-12-14T19:28:58.451Z,-7.60
2022-12-14T19:31:27.123Z,-7.60
2022-12-14T19:33:55.750Z,-7.70
2022-12-14T19:36:26.400Z,-7.70
2022-12-14T19:38:54.554Z,-7.70
2022-12-14T19:41:22.709Z,-7.80
2022-12-14T19:43:50.911Z,-7.20
2022-12-14T19:46:19.156Z,-7.80
2022-12-14T19:48:47.598Z,-7.90
2022-12-14T19:51:16.315Z,-7.70
2022-12-14T19:53:47.704Z,-7.80
2022-12-14T19:56:18.996Z,-8.00
2022-12-14T19:58:48.183Z,-8.00
2022-12-14T20:01:18.775Z,-8.10
2022-12-14T20:03:47.241Z,-8.10
2022-12-14T20:06:15.552Z,-8.00
2022-12-14T20:08:45.805Z,-7.90
2022-12-14T20:11:17.955Z,-7.70
2022-12-14T20:13:46.100Z,-8.00
2022-12-14T20:16:18.054Z,-8.00
2022-12-14T20:18:46.472Z,-8.10
2022-12-14T20:21:22.382Z,-8.10
2022-12-14T20:23:52.157Z,-8.10
2022-12-14T20:26:23.292Z,-8.20
2022-12-14T20:28:56.977Z,-8.20
2022-12-14T20:31:25.924Z,-8.10
2022-12-14T20:33:54.752Z,-8.30
2022-12-14T20:36:23.146Z,-8.70
2022-12-14T20:38:57.744Z,-8.40
2022-12-14T20:41:26.780Z,-8.50
2022-12-14T20:43:55.450Z,-8.50
2022-12-14T20:46:30.628Z,-8.50
2022-12-14T20:49:01.952Z,-8.50
2022-12-14T20:51:32.185Z,-8.50
2022-12-14T20:54:03.359Z,-8.50
2022-12-14T20:56:31.828Z,-8.40
2022-12-14T20:59:00.640Z,-8.50
2022-12-14T21:01:29.280Z,-8.50
2022-12-14T21:04:01.266Z,-8.60
2022-12-14T21:06:29.794Z,-8.60
2022-12-14T21:09:06.242Z,-8.60
2022-12-14T21:11:56.646Z,-8.50
2022-12-14T21:14:28.763Z,-8.50
2022-12-14T21:16:57.538Z,-8.50
2022-12-14T21:19:26.395Z,-8.50
2022-12-14T21:21:55.212Z,-8.40
2022-12-14T21:25:00.462Z,-8.60
2022-12-14T21:27:19.207Z,-8.70
2022-12-14T21:29:48.213Z,-8.60
2022-12-14T21:32:18.187Z,-8.70
2022-12-14T21:34:47.776Z,-8.70
2022-12-14T21:37:16.105Z,-8.80
2022-12-14T21:39:52.351Z,-8.90
2022-12-14T21:42:24.967Z,-8.60
2022-12-14T21:44:55.121Z,-8.90
2022-12-14T21:47:26.415Z,-8.80
2022-12-14T21:49:55.318Z,-8.80
2022-12-14T21:52:26.539Z,-8.90
2022-12-14T21:54:55.001Z,-8.90
2022-12-14T21:57:49.599Z,-8.90
2022-12-14T22:00:19.757Z,-8.90
2022-12-14T22:02:48.393Z,-8.80
2022-12-14T22:05:16.899Z,-8.80
2022-12-14T22:07:44.997Z,-8.90
2022-12-14T22:10:13.164Z,-8.90
2022-12-14T22:12:42.797Z,-8.10
2022-12-14T22:15:12.139Z,-8.90
2022-12-14T22:17:40.261Z,-8.60
2022-12-14T22:20:10.028Z,-8.70
2022-12-14T22:22:38.151Z,-8.90
2022-12-14T22:25:07.339Z,-9.10
2022-12-14T22:27:35.537Z,-9.00
2022-12-14T22:30:06.451Z,-9.10
2022-12-14T22:32:34.709Z,-9.10
2022-12-14T22:35:02.880Z,-9.10
2022-12-14T22:37:31.067Z,-9.10
2022-12-14T22:39:59.238Z,-9.00
2022-12-14T22:42:27.739Z,-9.00
2022-12-14T22:44:55.855Z,-9.10
2022-12-14T22:47:25.398Z,-9.20
2022-12-14T22:49:53.591Z,-9.20
2022-12-14T22:52:24.956Z,-9.30
2022-12-14T22:54:54.350Z,-9.40
2022-12-14T22:57:23.549Z,-9.40
2022-12-14T22:59:58.917Z,-9.40
2022-12-14T23:02:30.181Z,-9.40
2022-12-14T23:04:58.712Z,-9.40
2022-12-14T23:07:26.910Z,-9.40
2022-12-14T23:10:12.796Z,-9.30
2022-12-14T23:12:58.649Z,-9.20
2022-12-14T23:15:44.193Z,-9.20
2022-12-14T23:18:31.393Z,-9.20
2022-12-14T23:21:17.748Z,-9.20
2022-12-14T23:24:04.739Z,-8.70
2022-12-14T23:26:51.959Z,-9.20
2022-12-14T23:29:37.531Z,-9.10
2022-12-14T23:32:23.422Z,-9.10
2022-12-14T23:35:10.386Z,-9.10
2022-12-14T23:37:55.883Z,-9.00
2022-12-14T23:40:41.874Z,-9.00
2022-12-14T23:43:29.398Z,-9.10
2022-12-14T23:46:15.445Z,-8.80
2022-12-14T23:49:01.349Z,-9.00
2022-12-14T23:51:48.576Z,-9.10
2022-12-14T23:54:34.940Z,-9.30
2022-12-14T23:57:24.946Z,-9.30
